sensor_id;sensor_type;location;lat;lon;timestamp;P1;durP1;ratioP1;P2;durP2;ratioP2
25319;SDS011;13256;49.012;8.610;2023-05-15T00:01:34;4.53;;;2.28;;
25319;SDS011;13256;49.012;8.610;2023-05-15T00:04:02;2.95;;;2.38;;
25319;SDS011;13256;49.012;8.610;2023-05-15T00:06:29;3.63;;;2.28;;
25319;SDS011;13256;49.012;8.610;2023-05-15T00:11:57;3.53;;;2.85;;
25319;SDS011;13256;49.012;8.610;2023-05-15T00:14:27;4.05;;;2.92;;
25319;SDS011;13256;49.012;8.610;2023-05-15T00:16:55;8.43;;;3.00;;
25319;SDS011;13256;49.012;8.610;2023-05-15T00:19:32;3.22;;;2.35;;
25319;SDS011;13256;49.012;8.610;2023-05-15T00:22:02;7.50;;;2.42;;
25319;SDS011;13256;49.012;8.610;2023-05-15T00:24:36;4.90;;;2.70;;
25319;SDS011;13256;49.012;8.610;2023-05-15T00:27:07;5.97;;;2.83;;
25319;SDS011;13256;49.012;8.610;2023-05-15T00:29:37;4.22;;;2.67;;
25319;SDS011;13256;49.012;8.610;2023-05-15T00:32:05;4.95;;;2.97;;
25319;SDS011;13256;49.012;8.610;2023-05-15T00:37:36;3.97;;;2.60;;
25319;SDS011;13256;49.012;8.610;2023-05-15T00:40:29;5.65;;;3.13;;
25319;SDS011;13256;49.012;8.610;2023-05-15T00:43:01;5.05;;;3.40;;
25319;SDS011;13256;49.012;8.610;2023-05-15T00:45:29;7.85;;;3.40;;
25319;SDS011;13256;49.012;8.610;2023-05-15T00:48:02;6.10;;;3.50;;
25319;SDS011;13256;49.012;8.610;2023-05-15T00:50:41;5.82;;;3.92;;
25319;SDS011;13256;49.012;8.610;2023-05-15T00:53:21;8.60;;;5.35;;
25319;SDS011;13256;49.012;8.610;2023-05-15T00:55:50;5.25;;;3.55;;
25319;SDS011;13256;49.012;8.610;2023-05-15T00:58:19;4.70;;;3.03;;
25319;SDS011;13256;49.012;8.610;2023-05-15T01:00:57;4.30;;;3.00;;
25319;SDS011;13256;49.012;8.610;2023-05-15T01:03:27;7.28;;;3.45;;
25319;SDS011;13256;49.012;8.610;2023-05-15T01:05:54;3.97;;;2.95;;
25319;SDS011;13256;49.012;8.610;2023-05-15T01:10:58;5.85;;;3.40;;
25319;SDS011;13256;49.012;8.610;2023-05-15T01:13:34;8.80;;;4.18;;
25319;SDS011;13256;49.012;8.610;2023-05-15T01:16:02;6.93;;;4.55;;
25319;SDS011;13256;49.012;8.610;2023-05-15T01:18:32;5.25;;;3.40;;
25319;SDS011;13256;49.012;8.610;2023-05-15T01:21:13;5.35;;;3.15;;
25319;SDS011;13256;49.012;8.610;2023-05-15T01:27:43;3.67;;;2.75;;
25319;SDS011;13256;49.012;8.610;2023-05-15T01:32:27;4.95;;;2.88;;
25319;SDS011;13256;49.012;8.610;2023-05-15T01:35:13;3.92;;;2.95;;
25319;SDS011;13256;49.012;8.610;2023-05-15T01:37:50;4.53;;;3.10;;
25319;SDS011;13256;49.012;8.610;2023-05-15T01:40:32;3.83;;;3.10;;
25319;SDS011;13256;49.012;8.610;2023-05-15T01:43:02;5.70;;;2.88;;
25319;SDS011;13256;49.012;8.610;2023-05-15T01:45:35;5.53;;;3.40;;
25319;SDS011;13256;49.012;8.610;2023-05-15T01:48:08;7.43;;;3.58;;
25319;SDS011;13256;49.012;8.610;2023-05-15T01:50:37;3.83;;;2.90;;
25319;SDS011;13256;49.012;8.610;2023-05-15T01:56:02;3.22;;;2.78;;
25319;SDS011;13256;49.012;8.610;2023-05-15T01:58:36;4.93;;;3.00;;
25319;SDS011;13256;49.012;8.610;2023-05-15T02:01:06;5.80;;;2.95;;
25319;SDS011;13256;49.012;8.610;2023-05-15T02:03:37;3.55;;;2.72;;
25319;SDS011;13256;49.012;8.610;2023-05-15T02:06:06;4.00;;;3.08;;
25319;SDS011;13256;49.012;8.610;2023-05-15T02:08:36;4.28;;;3.13;;
25319;SDS011;13256;49.012;8.610;2023-05-15T02:11:04;4.82;;;3.10;;
25319;SDS011;13256;49.012;8.610;2023-05-15T02:13:32;6.18;;;4.15;;
25319;SDS011;13256;49.012;8.610;2023-05-15T02:16:03;6.68;;;4.05;;
25319;SDS011;13256;49.012;8.610;2023-05-15T02:18:37;6.47;;;3.97;;
25319;SDS011;13256;49.012;8.610;2023-05-15T02:21:05;6.57;;;4.20;;
25319;SDS011;13256;49.012;8.610;2023-05-15T02:24:02;5.75;;;4.10;;
25319;SDS011;13256;49.012;8.610;2023-05-15T02:41:23;5.53;;;4.05;;
25319;SDS011;13256;49.012;8.610;2023-05-15T02:43:51;6.57;;;3.92;;
25319;SDS011;13256;49.012;8.610;2023-05-15T02:46:20;5.53;;;3.92;;
25319;SDS011;13256;49.012;8.610;2023-05-15T02:48:53;4.68;;;3.50;;
25319;SDS011;13256;49.012;8.610;2023-05-15T02:51:24;6.55;;;4.25;;
25319;SDS011;13256;49.012;8.610;2023-05-15T02:53:55;8.18;;;3.78;;
25319;SDS011;13256;49.012;8.610;2023-05-15T02:56:26;6.40;;;4.13;;
25319;SDS011;13256;49.012;8.610;2023-05-15T02:58:59;9.10;;;4.10;;
25319;SDS011;13256;49.012;8.610;2023-05-15T03:01:26;6.40;;;3.97;;
25319;SDS011;13256;49.012;8.610;2023-05-15T03:06:45;6.43;;;4.30;;
25319;SDS011;13256;49.012;8.610;2023-05-15T03:15:06;6.22;;;4.15;;
25319;SDS011;13256;49.012;8.610;2023-05-15T03:17:36;7.18;;;4.43;;
25319;SDS011;13256;49.012;8.610;2023-05-15T03:20:04;6.30;;;4.15;;
25319;SDS011;13256;49.012;8.610;2023-05-15T03:22:32;5.28;;;3.90;;
25319;SDS011;13256;49.012;8.610;2023-05-15T03:25:01;4.95;;;3.72;;
25319;SDS011;13256;49.012;8.610;2023-05-15T03:27:31;5.53;;;3.92;;
25319;SDS011;13256;49.012;8.610;2023-05-15T03:30:01;8.48;;;4.22;;
25319;SDS011;13256;49.012;8.610;2023-05-15T03:32:34;5.85;;;3.90;;
25319;SDS011;13256;49.012;8.610;2023-05-15T03:35:02;5.03;;;3.60;;
25319;SDS011;13256;49.012;8.610;2023-05-15T03:37:29;4.72;;;3.97;;
25319;SDS011;13256;49.012;8.610;2023-05-15T03:40:05;7.38;;;4.18;;
25319;SDS011;13256;49.012;8.610;2023-05-15T03:45:34;7.40;;;4.00;;
25319;SDS011;13256;49.012;8.610;2023-05-15T03:48:02;6.88;;;4.40;;
25319;SDS011;13256;49.012;8.610;2023-05-15T03:50:30;5.85;;;4.07;;
25319;SDS011;13256;49.012;8.610;2023-05-15T03:52:58;5.70;;;3.90;;
25319;SDS011;13256;49.012;8.610;2023-05-15T03:55:28;6.05;;;4.25;;
25319;SDS011;13256;49.012;8.610;2023-05-15T03:57:58;6.88;;;4.25;;
25319;SDS011;13256;49.012;8.610;2023-05-15T04:00:26;5.50;;;3.97;;
25319;SDS011;13256;49.012;8.610;2023-05-15T04:02:55;6.55;;;4.25;;
25319;SDS011;13256;49.012;8.610;2023-05-15T04:05:25;6.97;;;4.00;;
25319;SDS011;13256;49.012;8.610;2023-05-15T04:08:20;7.90;;;4.25;;
25319;SDS011;13256;49.012;8.610;2023-05-15T04:10:50;6.90;;;4.20;;
25319;SDS011;13256;49.012;8.610;2023-05-15T04:13:19;6.80;;;3.92;;
25319;SDS011;13256;49.012;8.610;2023-05-15T04:15:50;5.65;;;3.88;;
25319;SDS011;13256;49.012;8.610;2023-05-15T04:18:17;5.68;;;3.90;;
25319;SDS011;13256;49.012;8.610;2023-05-15T04:24:06;5.85;;;4.20;;
25319;SDS011;13256;49.012;8.610;2023-05-15T04:26:36;6.45;;;4.03;;
25319;SDS011;13256;49.012;8.610;2023-05-15T04:29:04;5.80;;;4.25;;
25319;SDS011;13256;49.012;8.610;2023-05-15T04:31:35;5.18;;;3.75;;
25319;SDS011;13256;49.012;8.610;2023-05-15T04:34:03;5.72;;;4.05;;
25319;SDS011;13256;49.012;8.610;2023-05-15T04:36:30;6.95;;;4.57;;
25319;SDS011;13256;49.012;8.610;2023-05-15T04:39:01;6.30;;;4.32;;
25319;SDS011;13256;49.012;8.610;2023-05-15T04:41:28;8.20;;;4.07;;
25319;SDS011;13256;49.012;8.610;2023-05-15T04:43:58;6.15;;;3.65;;
25319;SDS011;13256;49.012;8.610;2023-05-15T04:49:21;7.30;;;4.38;;
25319;SDS011;13256;49.012;8.610;2023-05-15T04:51:51;6.93;;;4.28;;
25319;SDS011;13256;49.012;8.610;2023-05-15T04:54:18;6.10;;;4.18;;
25319;SDS011;13256;49.012;8.610;2023-05-15T04:56:48;4.75;;;3.88;;
25319;SDS011;13256;49.012;8.610;2023-05-15T04:59:19;5.78;;;4.05;;
25319;SDS011;13256;49.012;8.610;2023-05-15T05:01:49;6.32;;;4.10;;
25319;SDS011;13256;49.012;8.610;2023-05-15T05:07:24;5.35;;;4.07;;
25319;SDS011;13256;49.012;8.610;2023-05-15T05:09:54;5.63;;;4.03;;
25319;SDS011;13256;49.012;8.610;2023-05-15T05:12:21;5.22;;;3.83;;
25319;SDS011;13256;49.012;8.610;2023-05-15T05:14:52;4.82;;;3.80;;
25319;SDS011;13256;49.012;8.610;2023-05-15T05:17:24;7.53;;;4.28;;
25319;SDS011;13256;49.012;8.610;2023-05-15T05:19:54;6.60;;;4.35;;
25319;SDS011;13256;49.012;8.610;2023-05-15T05:22:32;7.25;;;4.53;;
25319;SDS011;13256;49.012;8.610;2023-05-15T05:24:59;4.93;;;3.80;;
25319;SDS011;13256;49.012;8.610;2023-05-15T05:27:31;5.07;;;3.75;;
25319;SDS011;13256;49.012;8.610;2023-05-15T05:30:04;6.25;;;3.90;;
25319;SDS011;13256;49.012;8.610;2023-05-15T05:32:32;6.05;;;4.38;;
25319;SDS011;13256;49.012;8.610;2023-05-15T05:34:59;6.50;;;3.80;;
25319;SDS011;13256;49.012;8.610;2023-05-15T05:37:29;5.40;;;3.58;;
25319;SDS011;13256;49.012;8.610;2023-05-15T05:42:51;6.88;;;4.88;;
25319;SDS011;13256;49.012;8.610;2023-05-15T05:45:23;7.30;;;4.35;;
25319;SDS011;13256;49.012;8.610;2023-05-15T05:47:50;6.65;;;3.85;;
25319;SDS011;13256;49.012;8.610;2023-05-15T05:50:18;5.70;;;3.67;;
25319;SDS011;13256;49.012;8.610;2023-05-15T05:52:46;5.63;;;4.30;;
25319;SDS011;13256;49.012;8.610;2023-05-15T05:58:33;6.88;;;3.70;;
25319;SDS011;13256;49.012;8.610;2023-05-15T06:01:02;6.53;;;4.07;;
25319;SDS011;13256;49.012;8.610;2023-05-15T06:03:34;6.15;;;3.78;;
25319;SDS011;13256;49.012;8.610;2023-05-15T06:06:02;5.80;;;3.90;;
25319;SDS011;13256;49.012;8.610;2023-05-15T06:08:38;5.53;;;4.03;;
25319;SDS011;13256;49.012;8.610;2023-05-15T06:11:05;5.20;;;3.75;;
25319;SDS011;13256;49.012;8.610;2023-05-15T06:13:34;5.45;;;3.70;;
25319;SDS011;13256;49.012;8.610;2023-05-15T06:16:12;6.85;;;3.55;;
25319;SDS011;13256;49.012;8.610;2023-05-15T06:18:39;7.22;;;3.38;;
25319;SDS011;13256;49.012;8.610;2023-05-15T06:21:17;4.25;;;2.92;;
25319;SDS011;13256;49.012;8.610;2023-05-15T06:23:47;5.28;;;3.80;;
25319;SDS011;13256;49.012;8.610;2023-05-15T06:26:15;5.07;;;3.75;;
25319;SDS011;13256;49.012;8.610;2023-05-15T06:28:44;4.93;;;3.15;;
25319;SDS011;13256;49.012;8.610;2023-05-15T06:31:12;4.65;;;3.40;;
25319;SDS011;13256;49.012;8.610;2023-05-15T06:33:39;6.68;;;4.10;;
25319;SDS011;13256;49.012;8.610;2023-05-15T06:36:07;5.97;;;3.63;;
25319;SDS011;13256;49.012;8.610;2023-05-15T06:38:38;5.10;;;3.55;;
25319;SDS011;13256;49.012;8.610;2023-05-15T06:41:05;5.97;;;3.75;;
25319;SDS011;13256;49.012;8.610;2023-05-15T06:43:34;5.63;;;3.72;;
25319;SDS011;13256;49.012;8.610;2023-05-15T06:49:09;4.38;;;3.25;;
25319;SDS011;13256;49.012;8.610;2023-05-15T06:51:39;4.90;;;3.50;;
25319;SDS011;13256;49.012;8.610;2023-05-15T06:54:07;5.40;;;3.92;;
25319;SDS011;13256;49.012;8.610;2023-05-15T07:09:06;7.95;;;3.97;;
25319;SDS011;13256;49.012;8.610;2023-05-15T07:11:34;5.30;;;3.70;;
25319;SDS011;13256;49.012;8.610;2023-05-15T07:14:07;4.45;;;3.42;;
25319;SDS011;13256;49.012;8.610;2023-05-15T07:16:35;5.68;;;3.97;;
25319;SDS011;13256;49.012;8.610;2023-05-15T07:19:09;5.13;;;3.47;;
25319;SDS011;13256;49.012;8.610;2023-05-15T07:21:38;4.32;;;3.47;;
25319;SDS011;13256;49.012;8.610;2023-05-15T07:24:08;4.57;;;3.38;;
25319;SDS011;13256;49.012;8.610;2023-05-15T07:26:35;5.93;;;3.53;;
25319;SDS011;13256;49.012;8.610;2023-05-15T07:29:16;4.32;;;3.25;;
25319;SDS011;13256;49.012;8.610;2023-05-15T07:31:42;5.15;;;3.13;;
25319;SDS011;13256;49.012;8.610;2023-05-15T07:34:13;4.88;;;3.40;;
25319;SDS011;13256;49.012;8.610;2023-05-15T07:36:40;5.40;;;3.42;;
25319;SDS011;13256;49.012;8.610;2023-05-15T07:39:07;5.18;;;3.40;;
25319;SDS011;13256;49.012;8.610;2023-05-15T07:41:34;4.63;;;3.05;;
25319;SDS011;13256;49.012;8.610;2023-05-15T07:44:00;6.57;;;3.95;;
25319;SDS011;13256;49.012;8.610;2023-05-15T07:46:29;5.25;;;3.47;;
25319;SDS011;13256;49.012;8.610;2023-05-15T07:48:56;3.95;;;2.80;;
25319;SDS011;13256;49.012;8.610;2023-05-15T07:51:23;4.88;;;3.20;;
25319;SDS011;13256;49.012;8.610;2023-05-15T07:53:50;6.05;;;3.35;;
25319;SDS011;13256;49.012;8.610;2023-05-15T07:56:16;3.72;;;3.05;;
25319;SDS011;13256;49.012;8.610;2023-05-15T07:58:46;5.50;;;3.50;;
25319;SDS011;13256;49.012;8.610;2023-05-15T08:01:13;4.55;;;3.30;;
25319;SDS011;13256;49.012;8.610;2023-05-15T08:03:41;4.07;;;3.10;;
25319;SDS011;13256;49.012;8.610;2023-05-15T08:06:09;6.75;;;4.05;;
25319;SDS011;13256;49.012;8.610;2023-05-15T08:08:35;4.75;;;3.47;;
25319;SDS011;13256;49.012;8.610;2023-05-15T08:11:06;4.63;;;2.90;;
25319;SDS011;13256;49.012;8.610;2023-05-15T08:13:35;6.95;;;2.90;;
25319;SDS011;13256;49.012;8.610;2023-05-15T08:16:30;4.82;;;3.22;;
25319;SDS011;13256;49.012;8.610;2023-05-15T08:18:58;6.97;;;2.60;;
25319;SDS011;13256;49.012;8.610;2023-05-15T08:21:29;3.10;;;2.42;;
25319;SDS011;13256;49.012;8.610;2023-05-15T08:23:57;4.22;;;2.95;;
25319;SDS011;13256;49.012;8.610;2023-05-15T08:26:26;6.07;;;3.05;;
25319;SDS011;13256;49.012;8.610;2023-05-15T08:28:53;3.80;;;2.90;;
25319;SDS011;13256;49.012;8.610;2023-05-15T08:31:28;5.90;;;2.58;;
25319;SDS011;13256;49.012;8.610;2023-05-15T08:33:55;4.28;;;2.50;;
25319;SDS011;13256;49.012;8.610;2023-05-15T08:36:22;3.28;;;2.83;;
25319;SDS011;13256;49.012;8.610;2023-05-15T08:38:49;3.53;;;2.97;;
25319;SDS011;13256;49.012;8.610;2023-05-15T08:41:19;5.18;;;3.20;;
25319;SDS011;13256;49.012;8.610;2023-05-15T08:44:10;3.92;;;2.28;;
25319;SDS011;13256;49.012;8.610;2023-05-15T08:46:40;5.45;;;2.35;;
25319;SDS011;13256;49.012;8.610;2023-05-15T08:49:11;4.15;;;2.45;;
25319;SDS011;13256;49.012;8.610;2023-05-15T08:51:46;3.13;;;2.75;;
25319;SDS011;13256;49.012;8.610;2023-05-15T08:54:14;3.60;;;2.55;;
25319;SDS011;13256;49.012;8.610;2023-05-15T08:56:41;4.43;;;2.10;;
25319;SDS011;13256;49.012;8.610;2023-05-15T08:59:13;3.88;;;2.38;;
25319;SDS011;13256;49.012;8.610;2023-05-15T09:01:40;3.75;;;2.35;;
25319;SDS011;13256;49.012;8.610;2023-05-15T09:04:09;3.85;;;2.50;;
25319;SDS011;13256;49.012;8.610;2023-05-15T09:06:37;3.85;;;2.58;;
25319;SDS011;13256;49.012;8.610;2023-05-15T09:09:08;2.72;;;2.25;;
25319;SDS011;13256;49.012;8.610;2023-05-15T09:11:40;3.60;;;2.20;;
25319;SDS011;13256;49.012;8.610;2023-05-15T09:14:10;2.42;;;2.05;;
25319;SDS011;13256;49.012;8.610;2023-05-15T09:16:37;2.28;;;2.00;;
25319;SDS011;13256;49.012;8.610;2023-05-15T09:19:06;3.03;;;2.40;;
25319;SDS011;13256;49.012;8.610;2023-05-15T09:21:37;3.63;;;2.40;;
25319;SDS011;13256;49.012;8.610;2023-05-15T09:27:08;3.58;;;2.05;;
25319;SDS011;13256;49.012;8.610;2023-05-15T09:29:36;2.13;;;1.92;;
25319;SDS011;13256;49.012;8.610;2023-05-15T09:32:09;2.70;;;1.73;;
25319;SDS011;13256;49.012;8.610;2023-05-15T09:34:40;2.20;;;1.75;;
25319;SDS011;13256;49.012;8.610;2023-05-15T09:37:27;3.40;;;2.08;;
25319;SDS011;13256;49.012;8.610;2023-05-15T09:40:05;3.83;;;1.83;;
25319;SDS011;13256;49.012;8.610;2023-05-15T09:42:37;2.88;;;1.98;;
25319;SDS011;13256;49.012;8.610;2023-05-15T09:45:04;1.92;;;1.73;;
25319;SDS011;13256;49.012;8.610;2023-05-15T09:47:42;2.85;;;2.08;;
25319;SDS011;13256;49.012;8.610;2023-05-15T09:50:11;2.28;;;1.90;;
25319;SDS011;13256;49.012;8.610;2023-05-15T09:52:38;4.10;;;1.80;;
25319;SDS011;13256;49.012;8.610;2023-05-15T09:55:07;4.00;;;2.13;;
25319;SDS011;13256;49.012;8.610;2023-05-15T09:57:41;2.55;;;2.10;;
25319;SDS011;13256;49.012;8.610;2023-05-15T10:00:12;2.40;;;2.10;;
25319;SDS011;13256;49.012;8.610;2023-05-15T10:02:41;2.50;;;1.83;;
25319;SDS011;13256;49.012;8.610;2023-05-15T10:05:08;2.00;;;1.80;;
25319;SDS011;13256;49.012;8.610;2023-05-15T10:07:37;2.72;;;1.80;;
25319;SDS011;13256;49.012;8.610;2023-05-15T10:10:06;2.17;;;1.73;;
25319;SDS011;13256;49.012;8.610;2023-05-15T10:12:35;2.08;;;1.88;;
25319;SDS011;13256;49.012;8.610;2023-05-15T10:15:04;4.45;;;2.10;;
25319;SDS011;13256;49.012;8.610;2023-05-15T10:17:32;2.88;;;2.00;;
25319;SDS011;13256;49.012;8.610;2023-05-15T10:20:04;2.38;;;2.05;;
25319;SDS011;13256;49.012;8.610;2023-05-15T10:22:35;2.85;;;1.83;;
25319;SDS011;13256;49.012;8.610;2023-05-15T10:27:50;2.00;;;1.80;;
25319;SDS011;13256;49.012;8.610;2023-05-15T10:30:20;2.13;;;1.70;;
25319;SDS011;13256;49.012;8.610;2023-05-15T10:32:47;1.67;;;1.50;;
25319;SDS011;13256;49.012;8.610;2023-05-15T10:35:15;1.75;;;1.60;;
25319;SDS011;13256;49.012;8.610;2023-05-15T10:37:46;2.13;;;1.65;;
25319;SDS011;13256;49.012;8.610;2023-05-15T10:40:14;1.70;;;1.42;;
25319;SDS011;13256;49.012;8.610;2023-05-15T10:42:45;1.60;;;1.50;;
25319;SDS011;13256;49.012;8.610;2023-05-15T10:45:18;2.58;;;1.77;;
25319;SDS011;13256;49.012;8.610;2023-05-15T10:47:48;3.95;;;1.80;;
25319;SDS011;13256;49.012;8.610;2023-05-15T10:50:20;3.03;;;2.00;;
25319;SDS011;13256;49.012;8.610;2023-05-15T10:52:51;1.70;;;1.60;;
25319;SDS011;13256;49.012;8.610;2023-05-15T10:57:52;1.73;;;1.45;;
25319;SDS011;13256;49.012;8.610;2023-05-15T11:00:29;4.47;;;1.67;;
25319;SDS011;13256;49.012;8.610;2023-05-15T11:03:04;3.40;;;1.83;;
25319;SDS011;13256;49.012;8.610;2023-05-15T11:05:30;2.25;;;1.75;;
25319;SDS011;13256;49.012;8.610;2023-05-15T11:08:35;2.00;;;1.42;;
25319;SDS011;13256;49.012;8.610;2023-05-15T11:11:03;2.33;;;1.67;;
25319;SDS011;13256;49.012;8.610;2023-05-15T11:27:29;1.77;;;1.67;;
25319;SDS011;13256;49.012;8.610;2023-05-15T11:30:11;1.83;;;1.40;;
25319;SDS011;13256;49.012;8.610;2023-05-15T11:38:14;1.70;;;1.33;;
25319;SDS011;13256;49.012;8.610;2023-05-15T11:40:54;2.15;;;1.20;;
25319;SDS011;13256;49.012;8.610;2023-05-15T11:48:34;1.50;;;1.27;;
25319;SDS011;13256;49.012;8.610;2023-05-15T11:51:14;1.23;;;1.10;;
25319;SDS011;13256;49.012;8.610;2023-05-15T11:53:53;10.50;;;1.50;;
25319;SDS011;13256;49.012;8.610;2023-05-15T11:56:26;1.33;;;1.20;;
25319;SDS011;13256;49.012;8.610;2023-05-15T11:58:56;3.47;;;1.30;;
25319;SDS011;13256;49.012;8.610;2023-05-15T12:01:24;1.50;;;1.03;;
25319;SDS011;13256;49.012;8.610;2023-05-15T12:04:16;2.28;;;1.40;;
25319;SDS011;13256;49.012;8.610;2023-05-15T12:06:46;1.33;;;1.13;;
25319;SDS011;13256;49.012;8.610;2023-05-15T12:09:16;1.67;;;1.30;;
25319;SDS011;13256;49.012;8.610;2023-05-15T12:11:53;1.95;;;1.30;;
25319;SDS011;13256;49.012;8.610;2023-05-15T12:14:29;2.45;;;1.60;;
25319;SDS011;13256;49.012;8.610;2023-05-15T12:17:00;2.22;;;1.40;;
25319;SDS011;13256;49.012;8.610;2023-05-15T12:21:56;2.67;;;1.50;;
25319;SDS011;13256;49.012;8.610;2023-05-15T12:24:24;2.22;;;1.80;;
25319;SDS011;13256;49.012;8.610;2023-05-15T12:26:51;1.73;;;1.63;;
25319;SDS011;13256;49.012;8.610;2023-05-15T12:29:24;2.45;;;1.70;;
25319;SDS011;13256;49.012;8.610;2023-05-15T12:31:59;2.42;;;1.65;;
25319;SDS011;13256;49.012;8.610;2023-05-15T12:34:27;2.30;;;1.60;;
25319;SDS011;13256;49.012;8.610;2023-05-15T12:36:57;1.63;;;1.50;;
25319;SDS011;13256;49.012;8.610;2023-05-15T12:39:26;1.73;;;1.48;;
25319;SDS011;13256;49.012;8.610;2023-05-15T12:41:57;2.25;;;1.63;;
25319;SDS011;13256;49.012;8.610;2023-05-15T12:44:31;3.47;;;1.73;;
25319;SDS011;13256;49.012;8.610;2023-05-15T12:46:59;1.50;;;1.20;;
25319;SDS011;13256;49.012;8.610;2023-05-15T12:49:29;2.42;;;2.10;;
25319;SDS011;13256;49.012;8.610;2023-05-15T12:52:10;2.15;;;1.33;;
25319;SDS011;13256;49.012;8.610;2023-05-15T12:54:40;3.03;;;1.48;;
25319;SDS011;13256;49.012;8.610;2023-05-15T12:57:09;2.35;;;1.65;;
25319;SDS011;13256;49.012;8.610;2023-05-15T12:59:37;2.47;;;1.77;;
25319;SDS011;13256;49.012;8.610;2023-05-15T13:02:12;1.48;;;1.35;;
25319;SDS011;13256;49.012;8.610;2023-05-15T13:04:39;2.22;;;1.63;;
25319;SDS011;13256;49.012;8.610;2023-05-15T13:07:09;1.50;;;1.38;;
25319;SDS011;13256;49.012;8.610;2023-05-15T13:09:44;1.33;;;1.23;;
25319;SDS011;13256;49.012;8.610;2023-05-15T13:12:42;2.92;;;1.35;;
25319;SDS011;13256;49.012;8.610;2023-05-15T13:15:48;2.45;;;1.90;;
25319;SDS011;13256;49.012;8.610;2023-05-15T13:18:11;1.60;;;1.50;;
25319;SDS011;13256;49.012;8.610;2023-05-15T13:20:47;2.35;;;1.42;;
25319;SDS011;13256;49.012;8.610;2023-05-15T13:23:20;2.17;;;1.50;;
25319;SDS011;13256;49.012;8.610;2023-05-15T13:25:53;1.77;;;1.40;;
25319;SDS011;13256;49.012;8.610;2023-05-15T13:30:55;3.00;;;1.90;;
25319;SDS011;13256;49.012;8.610;2023-05-15T13:33:25;1.63;;;1.48;;
25319;SDS011;13256;49.012;8.610;2023-05-15T13:35:53;4.55;;;1.95;;
25319;SDS011;13256;49.012;8.610;2023-05-15T13:38:22;5.18;;;1.85;;
25319;SDS011;13256;49.012;8.610;2023-05-15T13:40:49;2.03;;;1.88;;
25319;SDS011;13256;49.012;8.610;2023-05-15T13:43:17;2.70;;;2.13;;
25319;SDS011;13256;49.012;8.610;2023-05-15T13:45:45;4.22;;;2.05;;
25319;SDS011;13256;49.012;8.610;2023-05-15T13:48:12;2.65;;;2.20;;
25319;SDS011;13256;49.012;8.610;2023-05-15T13:51:08;3.13;;;2.08;;
25319;SDS011;13256;49.012;8.610;2023-05-15T13:53:43;2.72;;;1.75;;
25319;SDS011;13256;49.012;8.610;2023-05-15T13:56:13;3.08;;;1.70;;
25319;SDS011;13256;49.012;8.610;2023-05-15T13:58:46;3.38;;;1.85;;
25319;SDS011;13256;49.012;8.610;2023-05-15T14:01:13;5.90;;;3.05;;
25319;SDS011;13256;49.012;8.610;2023-05-15T14:03:42;3.85;;;2.63;;
25319;SDS011;13256;49.012;8.610;2023-05-15T14:06:11;3.33;;;2.10;;
25319;SDS011;13256;49.012;8.610;2023-05-15T14:08:38;2.08;;;1.60;;
25319;SDS011;13256;49.012;8.610;2023-05-15T14:11:07;3.13;;;2.30;;
25319;SDS011;13256;49.012;8.610;2023-05-15T14:13:40;3.70;;;2.30;;
25319;SDS011;13256;49.012;8.610;2023-05-15T14:16:11;2.95;;;2.20;;
25319;SDS011;13256;49.012;8.610;2023-05-15T14:18:38;3.50;;;2.20;;
25319;SDS011;13256;49.012;8.610;2023-05-15T14:21:07;2.72;;;2.28;;
25319;SDS011;13256;49.012;8.610;2023-05-15T14:23:34;3.22;;;1.80;;
25319;SDS011;13256;49.012;8.610;2023-05-15T14:26:04;4.70;;;1.90;;
25319;SDS011;13256;49.012;8.610;2023-05-15T14:28:34;3.50;;;1.95;;
25319;SDS011;13256;49.012;8.610;2023-05-15T14:31:09;2.50;;;1.60;;
25319;SDS011;13256;49.012;8.610;2023-05-15T14:33:36;2.88;;;1.60;;
25319;SDS011;13256;49.012;8.610;2023-05-15T14:36:04;3.42;;;1.50;;
25319;SDS011;13256;49.012;8.610;2023-05-15T14:38:37;1.48;;;1.30;;
25319;SDS011;13256;49.012;8.610;2023-05-15T14:41:10;1.60;;;1.40;;
25319;SDS011;13256;49.012;8.610;2023-05-15T14:43:37;4.90;;;1.45;;
25319;SDS011;13256;49.012;8.610;2023-05-15T14:46:06;4.32;;;1.58;;
25319;SDS011;13256;49.012;8.610;2023-05-15T14:48:37;2.72;;;1.58;;
25319;SDS011;13256;49.012;8.610;2023-05-15T14:51:05;1.75;;;1.48;;
25319;SDS011;13256;49.012;8.610;2023-05-15T14:53:32;2.28;;;1.60;;
25319;SDS011;13256;49.012;8.610;2023-05-15T14:55:59;4.68;;;1.77;;
25319;SDS011;13256;49.012;8.610;2023-05-15T14:58:29;2.55;;;1.30;;
25319;SDS011;13256;49.012;8.610;2023-05-15T15:00:57;1.80;;;1.70;;
25319;SDS011;13256;49.012;8.610;2023-05-15T15:03:24;2.92;;;1.60;;
25319;SDS011;13256;49.012;8.610;2023-05-15T15:06:00;2.63;;;1.80;;
25319;SDS011;13256;49.012;8.610;2023-05-15T15:08:27;2.03;;;1.30;;
25319;SDS011;13256;49.012;8.610;2023-05-15T15:11:01;3.58;;;1.90;;
25319;SDS011;13256;49.012;8.610;2023-05-15T15:13:35;2.05;;;1.85;;
25319;SDS011;13256;49.012;8.610;2023-05-15T15:16:02;2.80;;;1.83;;
25319;SDS011;13256;49.012;8.610;2023-05-15T15:18:29;2.55;;;1.95;;
25319;SDS011;13256;49.012;8.610;2023-05-15T15:20:59;3.03;;;1.95;;
25319;SDS011;13256;49.012;8.610;2023-05-15T15:23:26;2.40;;;1.67;;
25319;SDS011;13256;49.012;8.610;2023-05-15T15:25:53;3.22;;;1.60;;
25319;SDS011;13256;49.012;8.610;2023-05-15T15:28:19;1.80;;;1.70;;
25319;SDS011;13256;49.012;8.610;2023-05-15T15:30:46;3.90;;;1.95;;
25319;SDS011;13256;49.012;8.610;2023-05-15T15:33:13;2.15;;;1.58;;
25319;SDS011;13256;49.012;8.610;2023-05-15T15:35:41;2.67;;;1.50;;
25319;SDS011;13256;49.012;8.610;2023-05-15T15:38:10;2.03;;;1.70;;
25319;SDS011;13256;49.012;8.610;2023-05-15T15:40:39;2.33;;;1.80;;
25319;SDS011;13256;49.012;8.610;2023-05-15T15:43:06;2.80;;;1.90;;
25319;SDS011;13256;49.012;8.610;2023-05-15T15:45:33;2.92;;;2.13;;
25319;SDS011;13256;49.012;8.610;2023-05-15T15:48:01;2.17;;;1.80;;
25319;SDS011;13256;49.012;8.610;2023-05-15T15:50:28;4.03;;;1.92;;
25319;SDS011;13256;49.012;8.610;2023-05-15T15:52:56;2.92;;;1.83;;
25319;SDS011;13256;49.012;8.610;2023-05-15T15:55:23;1.98;;;1.77;;
25319;SDS011;13256;49.012;8.610;2023-05-15T15:57:50;11.18;;;2.20;;
25319;SDS011;13256;49.012;8.610;2023-05-15T16:00:19;4.65;;;2.53;;
25319;SDS011;13256;49.012;8.610;2023-05-15T16:02:51;3.20;;;1.73;;
25319;SDS011;13256;49.012;8.610;2023-05-15T16:05:18;2.30;;;1.73;;
25319;SDS011;13256;49.012;8.610;2023-05-15T16:07:50;2.40;;;2.10;;
25319;SDS011;13256;49.012;8.610;2023-05-15T16:10:17;2.20;;;1.80;;
25319;SDS011;13256;49.012;8.610;2023-05-15T16:12:44;2.22;;;1.70;;
25319;SDS011;13256;49.012;8.610;2023-05-15T16:15:10;2.28;;;1.73;;
25319;SDS011;13256;49.012;8.610;2023-05-15T16:17:50;2.67;;;1.58;;
25319;SDS011;13256;49.012;8.610;2023-05-15T16:20:22;2.10;;;1.90;;
25319;SDS011;13256;49.012;8.610;2023-05-15T16:22:49;2.35;;;1.90;;
25319;SDS011;13256;49.012;8.610;2023-05-15T16:25:18;3.10;;;1.63;;
25319;SDS011;13256;49.012;8.610;2023-05-15T16:27:46;6.03;;;2.25;;
25319;SDS011;13256;49.012;8.610;2023-05-15T16:30:13;2.08;;;1.63;;
25319;SDS011;13256;49.012;8.610;2023-05-15T16:32:43;1.90;;;1.70;;
25319;SDS011;13256;49.012;8.610;2023-05-15T16:35:10;3.03;;;2.28;;
25319;SDS011;13256;49.012;8.610;2023-05-15T16:37:37;2.88;;;2.38;;
25319;SDS011;13256;49.012;8.610;2023-05-15T16:40:06;3.53;;;1.83;;
25319;SDS011;13256;49.012;8.610;2023-05-15T16:42:34;3.53;;;2.38;;
25319;SDS011;13256;49.012;8.610;2023-05-15T16:45:02;2.60;;;2.15;;
25319;SDS011;13256;49.012;8.610;2023-05-15T16:47:32;2.47;;;2.10;;
25319;SDS011;13256;49.012;8.610;2023-05-15T16:50:00;3.72;;;2.55;;
25319;SDS011;13256;49.012;8.610;2023-05-15T16:52:34;5.30;;;2.45;;
25319;SDS011;13256;49.012;8.610;2023-05-15T16:55:11;3.40;;;2.53;;
25319;SDS011;13256;49.012;8.610;2023-05-15T17:00:11;3.80;;;2.45;;
25319;SDS011;13256;49.012;8.610;2023-05-15T17:02:42;2.67;;;2.20;;
25319;SDS011;13256;49.012;8.610;2023-05-15T17:05:09;4.22;;;2.75;;